Time;durP1;ratioP1;P1;durP2;ratioP2;P2;SDS_P1;SDS_P2;PMS_P1;PMS_P2;Temp;Humidity;BMP_temperature;BMP_pressure;BME280_temperature;BME280_humidity;BME280_pressure;Samples;Min_cycle;Max_cycle;Signal;HPM_P1;HPM_P2
2023/07/17 00:00:32;;;;;;;0.50;0.50;;;;;17.90;96290.00;;;;5055050;28;20188;-55
2023/07/17 00:03:05;;;;;;;0.97;0.97;;;;;17.90;96286.00;;;;5054941;28;20685;-54
2023/07/17 00:05:32;;;;;;;0.50;0.50;;;;;17.90;96290.00;;;;5054542;28;20254;-54
2023/07/17 00:08:00;;;;;;;1.00;1.00;;;;;17.90;96279.00;;;;5054418;28;20219;-54
2023/07/17 00:10:27;;;;;;;0.67;0.67;;;;;18.00;96284.00;;;;5054267;28;20203;-54
2023/07/17 00:12:55;;;;;;;0.40;0.40;;;;;18.00;96280.00;;;;5054233;28;20278;-54
2023/07/17 00:15:24;;;;;;;0.63;0.63;;;;;18.00;96278.00;;;;5054351;28;20599;-54
2023/07/17 00:17:51;;;;;;;0.50;0.50;;;;;18.00;96277.00;;;;5054559;28;20212;-54
2023/07/17 00:20:18;;;;;;;0.40;0.40;;;;;18.10;96267.00;;;;5054251;28;20653;-54
2023/07/17 00:22:46;;;;;;;0.93;0.93;;;;;18.10;96276.00;;;;5054018;28;20243;-54
2023/07/17 00:25:13;;;;;;;0.57;0.57;;;;;17.90;96272.00;;;;5054608;28;20250;-54
2023/07/17 00:27:41;;;;;;;0.60;0.60;;;;;17.90;96273.00;;;;5054499;28;20212;-54
2023/07/17 00:30:09;;;;;;;0.40;0.40;;;;;17.90;96281.00;;;;5054051;28;20192;-54
2023/07/17 00:32:38;;;;;;;0.60;0.60;;;;;17.90;96280.00;;;;5054236;28;20549;-55
2023/07/17 00:35:06;;;;;;;0.80;0.80;;;;;17.90;96287.00;;;;5053990;28;20200;-55
2023/07/17 00:37:33;;;;;;;0.40;0.40;;;;;17.80;96274.00;;;;5054205;28;20596;-53
2023/07/17 00:40:01;;;;;;;0.50;0.50;;;;;17.70;96268.00;;;;5053802;28;20316;-54
2023/07/17 00:42:28;;;;;;;1.33;1.33;;;;;17.80;96275.00;;;;5053754;28;20705;-54
2023/07/17 00:44:55;;;;;;;0.50;0.50;;;;;18.00;96260.00;;;;5053727;28;20200;-53
2023/07/17 00:47:23;;;;;;;0.60;0.60;;;;;18.10;96273.00;;;;5053613;28;20219;-54
2023/07/17 00:49:52;;;;;;;0.60;0.60;;;;;18.10;96270.00;;;;5053744;28;20223;-54
2023/07/17 00:52:20;;;;;;;0.83;0.83;;;;;18.10;96273.00;;;;5053671;28;20764;-54
2023/07/17 00:54:47;;;;;;;2.00;1.10;;;;;17.90;96277.00;;;;5053618;28;20196;-53
2023/07/17 00:57:17;;;;;;;1.07;1.07;;;;;17.90;96278.00;;;;5053735;28;20199;-53
2023/07/17 00:59:44;;;;;;;0.50;0.50;;;;;17.70;96278.00;;;;5053623;28;20227;-53
2023/07/17 01:02:13;;;;;;;0.80;0.80;;;;;17.80;96284.00;;;;5053237;28;20216;-53
2023/07/17 01:04:45;;;;;;;1.00;1.00;;;;;17.60;96282.00;;;;5053410;28;20207;-55
2023/07/17 01:07:14;;;;;;;0.70;0.70;;;;;17.60;96283.00;;;;5052533;28;20296;-54
2023/07/17 01:09:42;;;;;;;0.80;0.80;;;;;17.60;96280.00;;;;5035434;28;20196;-54
2023/07/17 01:12:10;;;;;;;0.50;0.50;;;;;17.50;96291.00;;;;5053680;28;20636;-54
2023/07/17 01:14:37;;;;;;;0.70;0.70;;;;;17.40;96287.00;;;;5053524;28;20535;-54
2023/07/17 01:17:05;;;;;;;0.80;0.80;;;;;17.50;96280.00;;;;5054159;28;20226;-53
2023/07/17 01:19:32;;;;;;;0.73;0.73;;;;;17.60;96280.00;;;;5054211;28;20212;-55
2023/07/17 01:22:01;;;;;;;1.00;1.00;;;;;17.60;96282.00;;;;5053005;28;20250;-55
2023/07/17 01:24:30;;;;;;;0.60;0.60;;;;;17.70;96289.00;;;;5053248;28;20196;-55
2023/07/17 01:26:57;;;;;;;0.93;0.93;;;;;17.70;96289.00;;;;5053425;28;20690;-55
2023/07/17 01:29:25;;;;;;;0.87;0.83;;;;;17.50;96286.00;;;;5052761;28;20196;-53
2023/07/17 01:31:52;;;;;;;0.80;0.80;;;;;17.50;96281.00;;;;5052775;28;20215;-53
2023/07/17 01:34:20;;;;;;;0.90;0.90;;;;;17.60;96274.00;;;;5053290;28;20196;-53
2023/07/17 01:36:47;;;;;;;0.87;0.87;;;;;17.60;96275.00;;;;5052714;28;20196;-53
2023/07/17 01:39:14;;;;;;;0.77;0.77;;;;;17.50;96276.00;;;;5052625;28;20193;-53
2023/07/17 01:41:43;;;;;;;0.90;0.90;;;;;17.50;96271.00;;;;5052487;28;20706;-54
2023/07/17 01:44:11;;;;;;;1.00;1.00;;;;;17.50;96274.00;;;;5052714;28;20203;-54
2023/07/17 01:46:38;;;;;;;0.83;0.83;;;;;17.50;96283.00;;;;5052912;28;20563;-53
2023/07/17 01:49:07;;;;;;;0.63;0.63;;;;;17.50;96280.00;;;;5052673;28;20269;-54
2023/07/17 01:51:34;;;;;;;1.80;1.50;;;;;17.50;96273.00;;;;5052629;28;20208;-54
2023/07/17 01:54:01;;;;;;;0.83;0.83;;;;;17.30;96277.00;;;;5052507;28;20659;-54
2023/07/17 01:56:29;;;;;;;0.70;0.70;;;;;17.20;96283.00;;;;5052830;28;20199;-54
2023/07/17 01:58:58;;;;;;;2.03;1.10;;;;;17.00;96288.00;;;;5052781;28;20242;-54
2023/07/17 02:01:25;;;;;;;0.70;0.70;;;;;17.10;96277.00;;;;5052604;28;20219;-54
2023/07/17 02:03:52;;;;;;;0.83;0.83;;;;;17.10;96288.00;;;;5052674;28;20196;-55
2023/07/17 02:06:20;;;;;;;0.90;0.90;;;;;17.10;96291.00;;;;5052443;28;20215;-54
2023/07/17 02:08:47;;;;;;;0.60;0.60;;;;;17.00;96291.00;;;;5052297;28;20223;-54
2023/07/17 02:11:15;;;;;;;0.80;0.80;;;;;16.90;96291.00;;;;5052269;28;20195;-54
2023/07/17 02:13:42;;;;;;;1.60;1.50;;;;;17.00;96286.00;;;;5052353;28;20192;-54
2023/07/17 02:16:11;;;;;;;0.70;0.70;;;;;17.00;96283.00;;;;5052634;28;20260;-54
2023/07/17 02:18:38;;;;;;;0.97;0.97;;;;;17.00;96288.00;;;;5053575;28;20192;-55
2023/07/17 02:21:06;;;;;;;0.70;0.70;;;;;17.10;96282.00;;;;5056279;28;20196;-54
2023/07/17 02:23:34;;;;;;;1.17;1.17;;;;;17.10;96286.00;;;;5085707;22;20587;-57
2023/07/17 02:26:01;;;;;;;0.70;0.70;;;;;17.10;96296.00;;;;5076616;28;20197;-57
2023/07/17 02:28:28;;;;;;;0.87;0.87;;;;;17.10;96297.00;;;;5076791;28;20219;-57
2023/07/17 02:30:56;;;;;;;0.70;0.70;;;;;17.10;96287.00;;;;5076739;28;20199;-57
2023/07/17 02:33:25;;;;;;;1.17;1.17;;;;;17.10;96292.00;;;;5077143;28;20223;-57
2023/07/17 02:35:52;;;;;;;0.97;0.97;;;;;17.00;96291.00;;;;5076588;28;20312;-57
2023/07/17 02:38:20;;;;;;;0.70;0.70;;;;;17.00;96288.00;;;;5076316;28;20199;-57
2023/07/17 02:40:47;;;;;;;0.63;0.63;;;;;17.00;96302.00;;;;5076203;28;20257;-57
2023/07/17 02:43:15;;;;;;;0.83;0.83;;;;;16.90;96293.00;;;;5076139;28;20211;-57
2023/07/17 02:45:42;;;;;;;0.87;0.87;;;;;16.90;96312.00;;;;5076085;28;20221;-57
2023/07/17 02:48:10;;;;;;;0.87;0.87;;;;;16.90;96307.00;;;;5076057;28;20226;-57
2023/07/17 02:50:38;;;;;;;0.80;0.80;;;;;16.80;96307.00;;;;5076029;28;20187;-57
2023/07/17 02:53:06;;;;;;;1.43;1.37;;;;;16.60;96313.00;;;;5076135;28;20246;-57
2023/07/17 02:55:33;;;;;;;0.63;0.63;;;;;16.60;96321.00;;;;5075941;28;20202;-57
2023/07/17 02:58:01;;;;;;;0.70;0.70;;;;;16.50;96327.00;;;;5075882;28;20188;-57
2023/07/17 03:00:28;;;;;;;0.50;0.50;;;;;16.70;96316.00;;;;5075846;28;20673;-57
2023/07/17 03:02:56;;;;;;;0.50;0.50;;;;;16.70;96319.00;;;;5075978;28;20211;-56
2023/07/17 03:05:23;;;;;;;2.00;1.90;;;;;16.80;96326.00;;;;5076280;28;20670;-56
2023/07/17 03:07:54;;;;;;;1.87;1.10;;;;;16.80;96332.00;;;;5075653;28;20207;-56
2023/07/17 03:10:21;;;;;;;0.93;0.90;;;;;16.70;96336.00;;;;5057755;28;20724;-57
2023/07/17 03:12:49;;;;;;;0.90;0.90;;;;;16.60;96336.00;;;;5057628;28;20694;-57
2023/07/17 03:15:16;;;;;;;1.07;0.97;;;;;16.60;96339.00;;;;5075536;28;20203;-57
2023/07/17 03:17:43;;;;;;;0.83;0.83;;;;;16.60;96333.00;;;;5075443;28;20202;-57
2023/07/17 03:20:13;;;;;;;0.70;0.70;;;;;16.70;96334.00;;;;5075445;28;20191;-57
2023/07/17 03:22:40;;;;;;;0.60;0.60;;;;;16.70;96333.00;;;;5075172;28;20637;-57
2023/07/17 03:25:09;;;;;;;0.50;0.50;;;;;16.60;96322.00;;;;5075346;28;20217;-56
2023/07/17 03:27:37;;;;;;;1.07;0.97;;;;;16.60;96329.00;;;;5075537;28;20578;-57
2023/07/17 03:30:05;;;;;;;1.47;1.27;;;;;16.60;96331.00;;;;5074704;28;20599;-57
2023/07/17 03:32:34;;;;;;;0.80;0.80;;;;;16.60;96331.00;;;;5057236;28;20706;-57
2023/07/17 03:35:02;;;;;;;0.63;0.63;;;;;16.50;96337.00;;;;5075181;28;20192;-60
2023/07/17 03:37:31;;;;;;;0.60;0.60;;;;;16.30;96332.00;;;;5075161;28;20198;-59
2023/07/17 03:39:58;;;;;;;0.77;0.77;;;;;16.30;96335.00;;;;5075396;28;20525;-57
2023/07/17 03:42:27;;;;;;;2.97;1.30;;;;;16.30;96327.00;;;;5075086;28;20281;-57
2023/07/17 03:44:54;;;;;;;0.50;0.50;;;;;16.30;96335.00;;;;5075027;28;20195;-57
2023/07/17 03:47:22;;;;;;;0.60;0.60;;;;;16.10;96334.00;;;;5075050;28;20662;-57
2023/07/17 03:49:49;;;;;;;0.97;0.87;;;;;16.20;96337.00;;;;5074892;28;20611;-57
2023/07/17 03:52:16;;;;;;;0.60;0.60;;;;;16.30;96344.00;;;;5074833;28;20215;-57
2023/07/17 03:54:44;;;;;;;0.50;0.50;;;;;16.30;96345.00;;;;5074907;28;20666;-57
2023/07/17 03:57:12;;;;;;;0.77;0.77;;;;;16.30;96345.00;;;;5074877;28;20196;-57
2023/07/17 03:59:51;;;;;;;0.80;0.80;;;;;16.30;96341.00;;;;5075321;28;20198;-57
2023/07/17 04:02:19;;;;;;;0.60;0.60;;;;;16.30;96346.00;;;;5075176;28;20219;-57
2023/07/17 04:04:47;;;;;;;0.50;0.50;;;;;16.30;96342.00;;;;5074634;28;20662;-57
2023/07/17 04:07:14;;;;;;;0.60;0.60;;;;;16.30;96348.00;;;;5074557;28;20204;-57
2023/07/17 04:09:41;;;;;;;0.60;0.60;;;;;16.30;96348.00;;;;5074818;28;20621;-57
2023/07/17 04:12:10;;;;;;;0.80;0.80;;;;;16.40;96350.00;;;;5074501;28;20211;-57
2023/07/17 04:14:37;;;;;;;0.57;0.57;;;;;16.40;96350.00;;;;5075026;28;20199;-57
2023/07/17 04:17:06;;;;;;;1.63;1.53;;;;;16.50;96352.00;;;;5074376;28;20196;-57
2023/07/17 04:19:34;;;;;;;0.60;0.60;;;;;16.70;96351.00;;;;5075155;28;20242;-57
2023/07/17 04:22:01;;;;;;;0.53;0.53;;;;;16.80;96350.00;;;;5074222;28;20268;-57
2023/07/17 04:24:29;;;;;;;0.60;0.60;;;;;16.80;96355.00;;;;5074553;28;20536;-56
2023/07/17 04:26:56;;;;;;;1.80;1.30;;;;;16.80;96366.00;;;;5074275;28;20245;-57
2023/07/17 04:29:24;;;;;;;0.70;0.70;;;;;16.80;96358.00;;;;5074389;28;20626;-57
2023/07/17 04:31:51;;;;;;;0.93;0.93;;;;;16.80;96363.00;;;;5056178;28;20199;-56
2023/07/17 04:34:20;;;;;;;1.00;1.00;;;;;16.90;96367.00;;;;5074365;28;20194;-57
2023/07/17 04:36:48;;;;;;;1.73;1.63;;;;;16.90;96368.00;;;;5074022;28;20192;-57
2023/07/17 04:39:16;;;;;;;1.57;1.47;;;;;16.90;96369.00;;;;5073974;28;20190;-57
2023/07/17 04:41:44;;;;;;;0.77;0.77;;;;;17.00;96375.00;;;;5074084;28;20252;-56
2023/07/17 04:44:11;;;;;;;1.03;1.03;;;;;17.00;96370.00;;;;5074115;28;20200;-56
2023/07/17 04:46:39;;;;;;;1.10;1.10;;;;;17.00;96365.00;;;;5073836;28;20195;-56
2023/07/17 04:49:07;;;;;;;1.87;1.03;;;;;17.10;96368.00;;;;5073709;28;20272;-56
2023/07/17 04:51:35;;;;;;;0.77;0.77;;;;;17.20;96365.00;;;;5073661;28;20203;-56
2023/07/17 04:54:03;;;;;;;1.07;1.07;;;;;17.20;96363.00;;;;5073969;28;20203;-56
2023/07/17 04:56:30;;;;;;;1.23;1.07;;;;;17.20;96355.00;;;;5073957;28;20192;-56
2023/07/17 04:58:59;;;;;;;0.90;0.90;;;;;17.20;96360.00;;;;5073600;28;20184;-56
2023/07/17 05:01:26;;;;;;;1.60;1.50;;;;;17.30;96369.00;;;;5073800;28;20198;-56
2023/07/17 05:03:53;;;;;;;1.40;0.93;;;;;17.40;96367.00;;;;5055550;28;20578;-57
2023/07/17 05:06:21;;;;;;;0.60;0.60;;;;;17.40;96372.00;;;;5073652;28;20320;-56
2023/07/17 05:08:50;;;;;;;5.10;4.60;;;;;17.50;96379.00;;;;5073620;28;20289;-56
2023/07/17 05:11:17;;;;;;;1.80;1.70;;;;;17.50;96375.00;;;;5073360;28;20197;-56
2023/07/17 05:13:44;;;;;;;1.10;1.10;;;;;17.50;96375.00;;;;5073148;28;20300;-56
2023/07/17 05:16:12;;;;;;;0.63;0.63;;;;;17.60;96374.00;;;;5073384;28;20202;-56
2023/07/17 05:18:39;;;;;;;1.70;1.00;;;;;17.60;96379.00;;;;5072974;28;20237;-56
2023/07/17 05:21:07;;;;;;;0.87;0.87;;;;;17.60;96388.00;;;;5073187;28;20347;-56
2023/07/17 05:23:34;;;;;;;1.43;1.33;;;;;17.60;96383.00;;;;5073039;28;20249;-56
2023/07/17 05:26:04;;;;;;;1.27;1.23;;;;;17.60;96388.00;;;;5073205;28;20196;-56
2023/07/17 05:28:31;;;;;;;0.60;0.60;;;;;17.70;96381.00;;;;5073128;28;20222;-56
2023/07/17 05:30:59;;;;;;;0.60;0.60;;;;;17.70;96389.00;;;;5073373;28;20192;-56
2023/07/17 05:33:27;;;;;;;0.60;0.60;;;;;17.60;96388.00;;;;5072993;28;20211;-56
2023/07/17 05:35:54;;;;;;;0.80;0.80;;;;;17.60;96389.00;;;;5073044;28;20197;-56
2023/07/17 05:38:21;;;;;;;0.63;0.63;;;;;17.90;96387.00;;;;5055032;28;20212;-56
2023/07/17 05:40:49;;;;;;;1.60;1.50;;;;;17.90;96390.00;;;;5073023;28;20195;-56
2023/07/17 05:43:18;;;;;;;4.33;1.80;;;;;17.70;96385.00;;;;5073088;28;20286;-56
2023/07/17 05:45:45;;;;;;;0.80;0.80;;;;;17.60;96388.00;;;;5055008;28;20282;-57
2023/07/17 05:48:12;;;;;;;0.70;0.70;;;;;17.60;96389.00;;;;5073127;28;20249;-57
2023/07/17 05:50:41;;;;;;;0.60;0.60;;;;;17.70;96398.00;;;;5072855;28;20218;-60
2023/07/17 05:53:08;;;;;;;1.07;1.07;;;;;17.90;96396.00;;;;5072596;28;20247;-56
2023/07/17 05:55:35;;;;;;;1.00;1.00;;;;;17.80;96399.00;;;;5073055;28;20199;-57
2023/07/17 05:58:03;;;;;;;0.90;0.90;;;;;17.90;96394.00;;;;5072849;28;20199;-57
2023/07/17 06:00:32;;;;;;;0.73;0.73;;;;;18.00;96395.00;;;;5073082;28;20500;-57
2023/07/17 06:02:59;;;;;;;1.70;0.77;;;;;17.90;96397.00;;;;5072694;28;20578;-57
2023/07/17 06:05:29;;;;;;;0.80;0.80;;;;;18.10;96399.00;;;;5072978;28;20195;-57
2023/07/17 06:07:57;;;;;;;0.70;0.70;;;;;18.20;96395.00;;;;5073038;28;20664;-56
2023/07/17 06:10:25;;;;;;;0.50;0.50;;;;;18.50;96403.00;;;;5072722;28;20215;-55
2023/07/17 06:12:52;;;;;;;0.57;0.57;;;;;18.50;96405.00;;;;5072513;28;20401;-56
2023/07/17 06:15:20;;;;;;;0.83;0.83;;;;;18.60;96404.00;;;;5072802;28;20555;-57
2023/07/17 06:17:49;;;;;;;0.40;0.40;;;;;18.90;96404.00;;;;5072869;28;20203;-55
2023/07/17 06:20:17;;;;;;;0.83;0.83;;;;;18.90;96407.00;;;;5072509;28;20194;-55
2023/07/17 06:22:44;;;;;;;0.60;0.60;;;;;19.00;96403.00;;;;5068964;28;20320;-57
2023/07/17 06:25:12;;;;;;;0.87;0.87;;;;;19.00;96407.00;;;;5068008;28;20285;-57
2023/07/17 06:27:39;;;;;;;0.50;0.50;;;;;19.00;96407.00;;;;5070854;28;20200;-57
2023/07/17 06:30:08;;;;;;;0.87;0.87;;;;;19.10;96406.00;;;;5070093;28;20211;-56
2023/07/17 06:32:36;;;;;;;1.27;1.23;;;;;19.00;96409.00;;;;5070703;28;20219;-57
2023/07/17 06:35:05;;;;;;;1.53;1.43;;;;;19.00;96412.00;;;;5068671;28;20322;-57
2023/07/17 06:37:33;;;;;;;1.00;1.00;;;;;18.90;96410.00;;;;5067360;28;20203;-57
2023/07/17 06:40:00;;;;;;;0.80;0.70;;;;;19.20;96406.00;;;;5069633;28;20207;-57
2023/07/17 06:42:30;;;;;;;0.70;0.70;;;;;19.40;96406.00;;;;5070652;28;20702;-57
2023/07/17 06:44:57;;;;;;;2.37;1.20;;;;;19.60;96407.00;;;;5069536;28;20269;-57
2023/07/17 06:47:25;;;;;;;0.67;0.67;;;;;19.50;96415.00;;;;5069983;28;20225;-57
2023/07/17 06:49:52;;;;;;;6.80;1.30;;;;;19.70;96409.00;;;;5070209;28;20211;-57
2023/07/17 06:52:21;;;;;;;0.60;0.60;;;;;19.80;96413.00;;;;5070274;28;20216;-57
2023/07/17 06:54:48;;;;;;;0.70;0.70;;;;;19.80;96413.00;;;;5070254;28;20195;-57
2023/07/17 06:57:16;;;;;;;0.57;0.57;;;;;19.80;96414.00;;;;5070230;28;20199;-58
2023/07/17 06:59:43;;;;;;;1.10;1.00;;;;;20.00;96411.00;;;;5052197;28;20196;-57
2023/07/17 07:02:10;;;;;;;0.77;0.77;;;;;20.10;96408.00;;;;5070108;28;20531;-58
2023/07/17 07:04:38;;;;;;;0.63;0.63;;;;;20.00;96406.00;;;;5070527;28;20592;-57
2023/07/17 07:07:06;;;;;;;0.77;0.77;;;;;20.20;96401.00;;;;5072974;28;20199;-57
2023/07/17 07:09:35;;;;;;;2.40;1.20;;;;;20.40;96409.00;;;;5072924;28;20215;-58
2023/07/17 07:12:02;;;;;;;3.00;1.43;;;;;20.50;96398.00;;;;5072923;28;20317;-58
2023/07/17 07:14:30;;;;;;;0.77;0.77;;;;;20.60;96403.00;;;;5073959;28;20225;-58
2023/07/17 07:16:57;;;;;;;1.33;1.33;;;;;20.60;96403.00;;;;5073131;28;20199;-57
2023/07/17 07:19:25;;;;;;;0.83;0.83;;;;;20.80;96403.00;;;;5073888;28;20191;-58
2023/07/17 07:21:52;;;;;;;1.10;1.10;;;;;20.80;96407.00;;;;5054950;28;20286;-57
2023/07/17 07:24:19;;;;;;;0.70;0.70;;;;;20.70;96417.00;;;;5073837;28;20194;-58
2023/07/17 07:26:48;;;;;;;1.13;1.13;;;;;20.70;96417.00;;;;5073411;28;20199;-58
2023/07/17 07:29:16;;;;;;;0.90;0.90;;;;;20.80;96411.00;;;;5073245;28;20215;-58
2023/07/17 07:31:43;;;;;;;3.10;1.48;;;;;21.10;96412.00;;;;5073375;28;20195;-57
2023/07/17 07:34:11;;;;;;;1.40;1.33;;;;;21.30;96407.00;;;;5073554;28;20558;-58
2023/07/17 07:36:38;;;;;;;0.60;0.60;;;;;21.40;96412.00;;;;5073429;28;20195;-58
2023/07/17 07:39:05;;;;;;;1.13;1.13;;;;;21.50;96412.00;;;;5068911;28;20199;-58
2023/07/17 07:41:33;;;;;;;1.25;1.20;;;;;21.40;96416.00;;;;5072298;28;20654;-58
2023/07/17 07:44:02;;;;;;;1.98;1.33;;;;;21.40;96412.00;;;;5073435;28;20700;-57
2023/07/17 07:46:30;;;;;;;0.70;0.70;;;;;21.60;96409.00;;;;5073012;28;20198;-56
2023/07/17 07:48:58;;;;;;;0.98;0.98;;;;;21.70;96414.00;;;;5072206;28;20203;-56
2023/07/17 07:51:25;;;;;;;1.50;1.40;;;;;22.00;96413.00;;;;5067968;28;20199;-56
2023/07/17 07:53:53;;;;;;;0.68;0.68;;;;;21.90;96419.00;;;;5073816;28;20285;-56
2023/07/17 07:56:20;;;;;;;1.10;1.10;;;;;22.00;96415.00;;;;5073332;28;20555;-56
2023/07/17 07:58:48;;;;;;;2.17;1.17;;;;;21.80;96428.00;;;;5073066;28;20199;-56
2023/07/17 08:01:17;;;;;;;1.30;1.20;;;;;21.40;96422.00;;;;5072515;28;20199;-56
2023/07/17 08:03:44;;;;;;;0.57;0.57;;;;;21.80;96437.00;;;;5073437;28;20223;-56
2023/07/17 08:06:12;;;;;;;0.88;0.88;;;;;21.90;96424.00;;;;5072331;28;20203;-56
2023/07/17 08:08:39;;;;;;;1.75;1.38;;;;;22.20;96426.00;;;;5073146;28;20278;-57
2023/07/17 08:11:08;;;;;;;0.90;0.90;;;;;22.10;96424.00;;;;5072217;28;20215;-56
2023/07/17 08:13:35;;;;;;;0.47;0.47;;;;;22.30;96414.00;;;;5072826;28;20222;-56
2023/07/17 08:16:03;;;;;;;1.05;0.95;;;;;22.20;96432.00;;;;5072222;28;20202;-56
2023/07/17 08:18:31;;;;;;;1.00;1.00;;;;;22.10;96437.00;;;;5072478;28;20195;-59
2023/07/17 08:20:59;;;;;;;1.63;1.52;;;;;22.00;96433.00;;;;5071266;28;20298;-57
2023/07/17 08:23:27;;;;;;;0.68;0.68;;;;;22.10;96434.00;;;;5057845;22;20232;-53
2023/07/17 08:25:55;;;;;;;1.52;1.42;;;;;22.40;96428.00;;;;5052397;28;20204;-55
2023/07/17 08:28:22;;;;;;;0.93;0.93;;;;;22.30;96446.00;;;;5052305;28;20203;-54
2023/07/17 08:30:53;;;;;;;0.77;0.77;;;;;22.50;96435.00;;;;5052219;28;20212;-54
2023/07/17 08:33:21;;;;;;;0.73;0.73;;;;;22.40;96452.00;;;;5034494;28;20706;-54
2023/07/17 08:35:51;;;;;;;0.88;0.88;;;;;22.10;96437.00;;;;5052156;28;20246;-54
2023/07/17 08:38:19;;;;;;;1.52;1.42;;;;;22.20;96437.00;;;;5052580;28;20188;-54
2023/07/17 08:40:53;;;;;;;1.10;1.10;;;;;22.10;96446.00;;;;5051866;28;20197;-54
2023/07/17 08:43:22;;;;;;;1.75;1.05;;;;;21.80;96451.00;;;;5052336;28;20258;-54
2023/07/17 08:45:51;;;;;;;0.95;0.95;;;;;22.00;96443.00;;;;5051693;28;20204;-53
2023/07/17 08:48:19;;;;;;;2.17;1.15;;;;;22.30;96450.00;;;;5052312;28;20204;-54
2023/07/17 08:50:47;;;;;;;2.10;1.95;;;;;22.40;96446.00;;;;5051869;28;20219;-55
2023/07/17 08:53:17;;;;;;;1.55;1.45;;;;;22.20;96458.00;;;;5050703;28;20242;-54
2023/07/17 08:55:46;;;;;;;1.05;0.73;;;;;22.40;96451.00;;;;5030735;28;20249;-54
2023/07/17 08:58:14;;;;;;;1.33;1.30;;;;;22.80;96447.00;;;;5051404;28;20200;-53
2023/07/17 09:00:42;;;;;;;0.90;0.90;;;;;22.50;96445.00;;;;5052363;28;20530;-53
2023/07/17 09:03:10;;;;;;;1.23;1.13;;;;;22.30;96472.00;;;;5051144;28;20220;-53
2023/07/17 09:05:37;;;;;;;0.80;0.80;;;;;22.20;96460.00;;;;5052080;28;20192;-55
2023/07/17 09:08:05;;;;;;;0.70;0.70;;;;;22.80;96446.00;;;;5051245;28;20196;-55
2023/07/17 09:10:35;;;;;;;1.55;1.33;;;;;22.80;96442.00;;;;5051922;28;20216;-53
2023/07/17 09:13:04;;;;;;;1.88;1.48;;;;;22.40;96447.00;;;;5051872;28;20218;-53
2023/07/17 09:15:33;;;;;;;1.17;1.17;;;;;22.90;96436.00;;;;5051642;28;20556;-53
2023/07/17 09:18:01;;;;;;;1.48;1.38;;;;;23.50;96448.00;;;;5033944;28;20207;-55
2023/07/17 09:20:29;;;;;;;1.30;1.15;;;;;23.00;96453.00;;;;5033760;28;20228;-53
2023/07/17 09:23:00;;;;;;;1.50;1.40;;;;;22.60;96452.00;;;;5051378;28;20227;-54
2023/07/17 09:25:29;;;;;;;0.70;0.70;;;;;22.50;96446.00;;;;5051497;28;20268;-53
2023/07/17 09:27:59;;;;;;;1.30;1.20;;;;;22.80;96452.00;;;;5050689;28;20200;-53
2023/07/17 09:30:27;;;;;;;1.40;1.30;;;;;23.10;96443.00;;;;5051360;28;20703;-53
2023/07/17 09:33:05;;;;;;;1.17;1.15;;;;;23.00;96449.00;;;;5051628;28;20235;-53
2023/07/17 09:35:33;;;;;;;3.20;2.17;;;;;22.70;96445.00;;;;5050820;28;20604;-53
2023/07/17 09:38:00;;;;;;;0.95;0.95;;;;;22.90;96443.00;;;;5051522;28;20204;-54
2023/07/17 09:40:28;;;;;;;1.00;1.00;;;;;23.20;96440.00;;;;5033272;28;20241;-54
2023/07/17 09:42:57;;;;;;;0.82;0.82;;;;;23.40;96445.00;;;;5051013;28;20220;-54
2023/07/17 09:45:25;;;;;;;0.50;0.50;;;;;23.50;96452.00;;;;5051122;28;20203;-54
2023/07/17 09:47:53;;;;;;;0.80;0.80;;;;;23.30;96452.00;;;;5051342;28;20203;-54
2023/07/17 09:50:23;;;;;;;0.57;0.57;;;;;23.70;96456.00;;;;5051073;28;20310;-54
2023/07/17 09:52:51;;;;;;;1.08;1.05;;;;;22.90;96460.00;;;;5050888;28;20261;-54
2023/07/17 09:55:20;;;;;;;0.98;0.98;;;;;22.80;96464.00;;;;5050910;28;20207;-54
2023/07/17 09:57:51;;;;;;;0.98;0.98;;;;;23.00;96455.00;;;;5050880;28;20196;-54
2023/07/17 10:00:25;;;;;;;2.28;2.00;;;;;23.20;96462.00;;;;5050938;28;20192;-54
2023/07/17 10:02:59;;;;;;;2.08;1.70;;;;;23.20;96461.00;;;;5050754;28;20223;-54
2023/07/17 10:05:27;;;;;;;0.50;0.50;;;;;23.10;96457.00;;;;5051135;28;20200;-54
2023/07/17 10:07:57;;;;;;;1.63;1.38;;;;;23.00;96468.00;;;;5050858;28;20216;-54
2023/07/17 10:10:24;;;;;;;2.72;1.42;;;;;22.70;96444.00;;;;5032924;28;20215;-55
2023/07/17 10:12:52;;;;;;;1.20;0.82;;;;;22.70;96477.00;;;;5050613;28;20216;-55
2023/07/17 10:15:23;;;;;;;1.40;1.35;;;;;22.90;96455.00;;;;5049693;28;20192;-53
2023/07/17 10:17:57;;;;;;;0.80;0.80;;;;;22.90;96453.00;;;;5031037;28;20196;-53
2023/07/17 10:20:25;;;;;;;1.85;1.75;;;;;22.80;96458.00;;;;5051178;28;20639;-54
2023/07/17 10:22:52;;;;;;;0.88;0.88;;;;;22.70;96453.00;;;;5046113;28;20224;-53
2023/07/17 10:25:28;;;;;;;1.23;1.23;;;;;22.90;96459.00;;;;5051195;28;20200;-55
2023/07/17 10:27:58;;;;;;;1.35;0.90;;;;;22.60;96449.00;;;;5050181;28;20274;-54
2023/07/17 10:30:29;;;;;;;3.25;1.88;;;;;22.70;96442.00;;;;5050885;28;20692;-55
2023/07/17 10:33:08;;;;;;;1.23;1.17;;;;;22.90;96447.00;;;;5050087;28;20220;-54
2023/07/17 10:35:46;;;;;;;1.42;1.35;;;;;22.90;96439.00;;;;5051147;28;20202;-54
2023/07/17 10:38:15;;;;;;;0.60;0.60;;;;;22.70;96433.00;;;;5046186;28;20200;-54
2023/07/17 10:40:43;;;;;;;0.70;0.70;;;;;23.20;96437.00;;;;5053951;28;20207;-54
2023/07/17 10:43:20;;;;;;;1.20;1.17;;;;;23.10;96439.00;;;;5053888;28;20230;-54
2023/07/17 10:45:49;;;;;;;0.93;0.93;;;;;23.10;96433.00;;;;5054211;28;20266;-54
2023/07/17 10:48:18;;;;;;;0.63;0.63;;;;;23.00;96438.00;;;;5054283;28;20200;-54
2023/07/17 10:50:51;;;;;;;1.20;1.10;;;;;23.00;96433.00;;;;5054093;28;20223;-54
2023/07/17 10:53:18;;;;;;;0.73;0.73;;;;;23.20;96429.00;;;;5054110;28;20264;-54
2023/07/17 10:55:47;;;;;;;1.33;1.30;;;;;23.50;96423.00;;;;5036223;28;20223;-54
2023/07/17 10:58:15;;;;;;;0.95;0.95;;;;;23.40;96426.00;;;;5054091;28;20204;-54
2023/07/17 11:00:43;;;;;;;1.05;1.05;;;;;23.50;96432.00;;;;5053605;28;20193;-54
2023/07/17 11:03:14;;;;;;;1.20;1.20;;;;;23.80;96425.00;;;;5054281;28;20227;-54
2023/07/17 11:05:42;;;;;;;1.75;1.20;;;;;23.80;96412.00;;;;5053726;28;20317;-54
2023/07/17 11:08:12;;;;;;;2.97;1.58;;;;;23.90;96419.00;;;;5054309;28;20218;-54
2023/07/17 11:10:42;;;;;;;1.08;1.08;;;;;23.80;96429.00;;;;5053497;28;20298;-54
2023/07/17 11:13:10;;;;;;;0.70;0.70;;;;;23.90;96408.00;;;;5052723;28;20216;-55
2023/07/17 11:15:38;;;;;;;0.75;0.75;;;;;23.70;96434.00;;;;5053070;28;20196;-54
2023/07/17 11:18:08;;;;;;;1.05;1.05;;;;;23.60;96421.00;;;;5053682;28;20196;-55
2023/07/17 11:20:37;;;;;;;0.82;0.82;;;;;23.90;96411.00;;;;5054116;28;20218;-54
2023/07/17 11:23:10;;;;;;;0.77;0.77;;;;;23.60;96411.00;;;;5035648;28;20636;-54
2023/07/17 11:25:38;;;;;;;0.73;0.73;;;;;23.90;96419.00;;;;5053614;28;20675;-54
2023/07/17 11:28:06;;;;;;;1.17;1.08;;;;;24.00;96396.00;;;;5053569;28;20192;-54
2023/07/17 11:30:33;;;;;;;0.70;0.70;;;;;24.00;96403.00;;;;5053068;28;20212;-54
2023/07/17 11:33:02;;;;;;;0.60;0.60;;;;;24.20;96405.00;;;;5053408;28;20231;-54
2023/07/17 11:35:46;;;;;;;0.80;0.80;;;;;24.50;96405.00;;;;5053215;28;20204;-54
2023/07/17 11:38:15;;;;;;;0.90;0.90;;;;;24.50;96399.00;;;;5035361;28;20207;-54
2023/07/17 11:40:53;;;;;;;2.22;1.60;;;;;24.80;96382.00;;;;5053284;28;20192;-54
2023/07/17 11:43:28;;;;;;;0.90;0.90;;;;;25.00;96403.00;;;;5048737;28;20222;-54
2023/07/17 11:46:01;;;;;;;0.98;0.90;;;;;24.70;96397.00;;;;5053212;28;20752;-54
2023/07/17 11:48:29;;;;;;;0.52;0.52;;;;;25.00;96381.00;;;;5053176;28;20604;-54
2023/07/17 11:50:58;;;;;;;0.63;0.63;;;;;24.80;96392.00;;;;5052393;28;20218;-54
2023/07/17 11:53:27;;;;;;;0.93;0.93;;;;;24.90;96393.00;;;;5052695;28;20227;-54
2023/07/17 11:55:55;;;;;;;0.95;0.95;;;;;24.60;96372.00;;;;5053014;28;20203;-54
2023/07/17 11:58:29;;;;;;;2.38;1.58;;;;;25.00;96387.00;;;;5052999;28;20196;-54
2023/07/17 12:00:57;;;;;;;1.45;1.35;;;;;25.50;96364.00;;;;5053043;28;20191;-54
2023/07/17 12:03:25;;;;;;;2.83;1.25;;;;;25.50;96367.00;;;;5052819;28;20220;-55
2023/07/17 12:05:52;;;;;;;3.20;1.00;;;;;26.10;96378.00;;;;5052910;28;20200;-54
2023/07/17 12:08:21;;;;;;;1.52;1.42;;;;;26.20;96369.00;;;;5052890;28;20211;-54
2023/07/17 12:10:49;;;;;;;1.00;1.00;;;;;25.80;96384.00;;;;5053030;28;20220;-55
2023/07/17 12:13:16;;;;;;;0.52;0.52;;;;;25.20;96377.00;;;;5053092;28;20216;-54
2023/07/17 12:15:44;;;;;;;0.80;0.80;;;;;25.30;96363.00;;;;5052423;28;20614;-55
2023/07/17 12:18:11;;;;;;;1.20;1.20;;;;;25.80;96359.00;;;;5053048;28;20200;-54
2023/07/17 12:20:38;;;;;;;1.33;1.33;;;;;25.80;96355.00;;;;5052647;28;20254;-54
2023/07/17 12:23:06;;;;;;;0.63;0.63;;;;;25.70;96359.00;;;;5052377;28;20223;-54